Terminal Aerodrome Forecast
Issued by NWS Detroit/Pontiac, MI

Home | Current Version | Previous Version | Text Only | Print | Product List | Glossary On
Versions: 1 2 3 4 5 6 7 8 9 10 11 12 13 14 15 16 17 18 19 20 21 22 23
000
FTUS43 KDTX 180926 AAA
TAFFNT
TAF AMD
KFNT 180926Z 1809/1906 23005KT 6SM BR BKN025 OVC035
     FM181300 23008KT 4SM BR OVC008
      TEMPO 1813/1815 2SM -DZ OVC007
     FM181900 23010KT 6SM BR OVC012
     FM190000 23008KT 6SM BR OVC012=

USA.gov is the U.S. government's official web portal to all federal, state and local government web resources and services.